Time;durP1;ratioP1;P1;durP2;ratioP2;P2;SDS_P1;SDS_P2;PMS_P1;PMS_P2;Temp;Humidity;BMP_temperature;BMP_pressure;BME280_temperature;BME280_humidity;BME280_pressure;Samples;Min_cycle;Max_cycle;Signal;HPM_P1;HPM_P2
2022/10/02 00:01:40;;;;;;;;;;;11.00;99.90;;;;;;6284697;22;19913;-88
2022/10/02 00:04:09;;;;;;;;;;;11.00;99.90;;;;;;6283278;22;20349;-87
2022/10/02 00:06:40;;;;;;;;;;;11.00;99.90;;;;;;6282610;22;19902;-86
2022/10/02 00:09:06;;;;;;;;;;;11.00;99.90;;;;;;6282798;22;19902;-87
2022/10/02 00:11:42;;;;;;;;;;;11.00;99.90;;;;;;6282412;22;19902;-87
2022/10/02 00:14:10;;;;;;;;;;;11.00;99.90;;;;;;6282703;22;19978;-86
2022/10/02 00:16:38;;;;;;;;;;;11.00;99.90;;;;;;6308477;22;19903;-87
2022/10/02 00:19:04;;;;;;;;;;;11.00;99.90;;;;;;6282756;22;19938;-86
2022/10/02 00:21:39;;;;;;;;;;;11.00;99.90;;;;;;6282027;22;19913;-86
2022/10/02 00:24:07;;;;;;;;;;;11.00;99.90;;;;;;6283924;22;19953;-87
2022/10/02 00:26:59;;;;;;;;;;;10.90;99.90;;;;;;6309155;22;19902;-86
2022/10/02 00:29:28;;;;;;;;;;;10.90;99.90;;;;;;6247765;22;19938;-86
2022/10/02 00:31:53;;;;;;;;;;;10.90;99.90;;;;;;6282812;22;19902;-86
2022/10/02 00:34:38;;;;;;;;;;;10.90;99.90;;;;;;6308549;22;20311;-87
2022/10/02 00:37:06;;;;;;;;;;;10.90;99.90;;;;;;6282107;22;19902;-85
2022/10/02 00:39:48;;;;;;;;;;;10.90;99.90;;;;;;6308204;22;19906;-85
2022/10/02 00:42:13;;;;;;;;;;;10.90;99.90;;;;;;6282242;22;19907;-85
2022/10/02 00:44:39;;;;;;;;;;;10.90;99.90;;;;;;6282538;22;20307;-86
2022/10/02 00:47:19;;;;;;;;;;;10.90;99.90;;;;;;6282567;22;20372;-86
2022/10/02 00:50:01;;;;;;;;;;;10.80;99.90;;;;;;6284670;22;20346;-87
2022/10/02 00:52:38;;;;;;;;;;;10.80;99.90;;;;;;6282463;22;20227;-87
2022/10/02 00:55:30;;;;;;;;;;;10.80;99.90;;;;;;6285036;22;19911;-87
2022/10/02 00:58:11;;;;;;;;;;;10.80;99.90;;;;;;6282685;22;19906;-87
2022/10/02 01:00:39;;;;;;;;;;;10.80;99.90;;;;;;6309035;22;19911;-88
2022/10/02 01:03:10;;;;;;;;;;;10.80;99.90;;;;;;6282486;22;19911;-87
2022/10/02 01:05:36;;;;;;;;;;;10.80;99.90;;;;;;6282448;22;19986;-86
2022/10/02 01:08:03;;;;;;;;;;;10.80;99.90;;;;;;6308125;22;19909;-87
2022/10/02 01:10:28;;;;;;;;;;;10.80;99.90;;;;;;6308038;22;19982;-87
2022/10/02 01:12:55;;;;;;;;;;;10.80;99.90;;;;;;6282623;22;20276;-89
2022/10/02 01:15:22;;;;;;;;;;;10.80;99.90;;;;;;6283140;22;19909;-87
2022/10/02 01:17:49;;;;;;;;;;;10.80;99.90;;;;;;6282931;22;19959;-88
2022/10/02 01:20:18;;;;;;;;;;;10.80;99.90;;;;;;6308637;22;19902;-88
2022/10/02 01:22:46;;;;;;;;;;;10.80;99.90;;;;;;6308708;22;19899;-88
2022/10/02 01:25:12;;;;;;;;;;;10.80;99.90;;;;;;6282658;22;20290;-87
2022/10/02 01:27:53;;;;;;;;;;;10.80;99.90;;;;;;6308329;22;19903;-87
2022/10/02 01:30:19;;;;;;;;;;;10.80;99.90;;;;;;6308461;22;19964;-87
2022/10/02 01:32:53;;;;;;;;;;;10.80;99.90;;;;;;6282506;22;19933;-86
2022/10/02 01:35:19;;;;;;;;;;;10.80;99.90;;;;;;6308018;22;19903;-87
2022/10/02 01:41:13;;;;;;;;;;;10.70;99.90;;;;;;6310049;22;19930;-87
2022/10/02 01:43:43;;;;;;;;;;;10.70;99.90;;;;;;6282174;22;19903;-87
2022/10/02 01:46:26;;;;;;;;;;;10.70;99.90;;;;;;6307799;22;19935;-87
2022/10/02 01:49:11;;;;;;;;;;;10.70;99.90;;;;;;6281794;22;19909;-87
2022/10/02 01:51:55;;;;;;;;;;;10.70;99.90;;;;;;6308121;22;19906;-87
2022/10/02 01:54:40;;;;;;;;;;;10.70;99.90;;;;;;6282092;22;20039;-87
2022/10/02 01:57:09;;;;;;;;;;;10.70;99.90;;;;;;6282065;22;19934;-88
2022/10/02 01:59:37;;;;;;;;;;;10.70;99.90;;;;;;6281937;22;19985;-86
2022/10/02 02:02:11;;;;;;;;;;;10.70;99.90;;;;;;6309025;22;19918;-87
2022/10/02 02:04:55;;;;;;;;;;;10.70;99.90;;;;;;6307852;22;19941;-87
2022/10/02 02:07:39;;;;;;;;;;;10.70;99.90;;;;;;6281859;22;19910;-87
2022/10/02 02:10:23;;;;;;;;;;;10.70;99.90;;;;;;6307976;22;19922;-87
2022/10/02 02:12:55;;;;;;;;;;;10.70;99.90;;;;;;6307762;22;19910;-87
2022/10/02 02:15:27;;;;;;;;;;;10.70;99.90;;;;;;6281864;22;19923;-87
2022/10/02 02:18:06;;;;;;;;;;;10.80;99.90;;;;;;6307503;22;19910;-87
2022/10/02 02:20:35;;;;;;;;;;;10.80;99.90;;;;;;6307504;22;20315;-86
2022/10/02 02:23:07;;;;;;;;;;;10.80;99.90;;;;;;6307558;22;19899;-87
2022/10/02 02:25:35;;;;;;;;;;;10.80;99.90;;;;;;6281565;22;19925;-88
2022/10/02 02:28:03;;;;;;;;;;;10.80;99.90;;;;;;6281585;22;19903;-87
2022/10/02 02:30:30;;;;;;;;;;;10.80;99.90;;;;;;6281966;22;19903;-87
2022/10/02 02:33:24;;;;;;;;;;;10.80;99.90;;;;;;6281567;22;19914;-87
2022/10/02 02:35:54;;;;;;;;;;;10.80;99.90;;;;;;6281688;22;19903;-87
2022/10/02 02:38:31;;;;;;;;;;;10.80;99.90;;;;;;6307271;22;19903;-87
2022/10/02 02:41:01;;;;;;;;;;;10.70;99.90;;;;;;6281322;22;19915;-87
2022/10/02 02:43:33;;;;;;;;;;;10.70;99.90;;;;;;6281349;22;19903;-87
2022/10/02 02:46:05;;;;;;;;;;;10.70;99.90;;;;;;6281737;22;19903;-87
2022/10/02 02:48:49;;;;;;;;;;;10.70;99.90;;;;;;6307012;22;19907;-87
2022/10/02 02:51:36;;;;;;;;;;;10.70;99.90;;;;;;6309016;22;19902;-86
2022/10/02 02:54:27;;;;;;;;;;;10.70;99.90;;;;;;6281454;22;19906;-87
2022/10/02 02:56:55;;;;;;;;;;;10.70;99.90;;;;;;6270373;22;20264;-87
2022/10/02 02:59:21;;;;;;;;;;;10.80;99.90;;;;;;6280617;22;19906;-86
2022/10/02 03:01:47;;;;;;;;;;;10.80;99.90;;;;;;6280493;22;19998;-87
2022/10/02 03:04:13;;;;;;;;;;;10.80;99.90;;;;;;6306727;22;19903;-86
2022/10/02 03:06:44;;;;;;;;;;;10.90;99.90;;;;;;6308132;22;19910;-86
2022/10/02 03:09:11;;;;;;;;;;;10.90;99.90;;;;;;6280913;22;19910;-87
2022/10/02 03:11:48;;;;;;;;;;;10.90;99.90;;;;;;6280727;22;20004;-87
2022/10/02 03:14:32;;;;;;;;;;;11.00;99.90;;;;;;6280736;22;20217;-86
2022/10/02 03:17:21;;;;;;;;;;;11.00;99.90;;;;;;6308129;22;19926;-87
2022/10/02 03:19:53;;;;;;;;;;;11.00;99.90;;;;;;6294209;22;19907;-86
2022/10/02 03:22:28;;;;;;;;;;;11.00;99.90;;;;;;6280588;22;19907;-87
2022/10/02 03:25:03;;;;;;;;;;;11.00;99.90;;;;;;6306587;22;20295;-86
2022/10/02 03:30:58;;;;;;;;;;;11.00;99.90;;;;;;6308456;22;19910;-86
2022/10/02 03:33:24;;;;;;;;;;;11.00;99.90;;;;;;6306618;22;20400;-86
2022/10/02 03:35:50;;;;;;;;;;;11.00;99.90;;;;;;6306367;22;19925;-87
2022/10/02 03:38:16;;;;;;;;;;;11.00;99.90;;;;;;6306643;22;19969;-87
2022/10/02 03:40:42;;;;;;;;;;;11.00;99.90;;;;;;6280594;22;20234;-87
2022/10/02 03:43:15;;;;;;;;;;;11.00;99.90;;;;;;6280685;22;19903;-86
2022/10/02 03:45:40;;;;;;;;;;;11.00;99.90;;;;;;6306579;22;19910;-86
2022/10/02 03:48:06;;;;;;;;;;;11.00;99.90;;;;;;6306530;22;20234;-87
2022/10/02 03:50:31;;;;;;;;;;;11.00;99.90;;;;;;6280646;22;19898;-87
2022/10/02 03:52:57;;;;;;;;;;;11.00;99.90;;;;;;6306478;22;19903;-87
2022/10/02 03:55:34;;;;;;;;;;;11.00;99.90;;;;;;6280611;22;19903;-86
2022/10/02 03:58:09;;;;;;;;;;;11.00;99.90;;;;;;6309563;22;19942;-87
2022/10/02 04:00:36;;;;;;;;;;;11.00;99.90;;;;;;6309688;22;19914;-87
2022/10/02 04:03:06;;;;;;;;;;;11.00;99.90;;;;;;6308294;22;19898;-87
2022/10/02 04:05:38;;;;;;;;;;;11.00;99.90;;;;;;6308030;22;19993;-87
2022/10/02 04:08:08;;;;;;;;;;;11.00;99.90;;;;;;6282469;22;20208;-87
2022/10/02 04:10:49;;;;;;;;;;;11.00;99.90;;;;;;6308446;22;20377;-87
2022/10/02 04:13:18;;;;;;;;;;;11.00;99.90;;;;;;6308614;22;19956;-87
2022/10/02 04:15:49;;;;;;;;;;;11.00;99.90;;;;;;6308407;22;19903;-87
2022/10/02 04:18:32;;;;;;;;;;;11.00;99.90;;;;;;6282497;22;20282;-86
2022/10/02 04:21:28;;;;;;;;;;;11.00;99.90;;;;;;6282465;22;20215;-87
2022/10/02 04:23:58;;;;;;;;;;;11.00;99.90;;;;;;6308106;22;19945;-87
2022/10/02 04:26:26;;;;;;;;;;;11.00;99.90;;;;;;6282680;22;19910;-87
2022/10/02 04:29:00;;;;;;;;;;;11.00;99.90;;;;;;6282323;22;20303;-87
2022/10/02 04:31:26;;;;;;;;;;;11.00;99.90;;;;;;6282352;22;20333;-86
2022/10/02 04:33:53;;;;;;;;;;;11.00;99.90;;;;;;6282391;22;19903;-87
2022/10/02 04:36:22;;;;;;;;;;;11.00;99.90;;;;;;6309963;22;19953;-86
2022/10/02 04:39:09;;;;;;;;;;;11.00;99.90;;;;;;6307991;22;20311;-86
2022/10/02 04:41:53;;;;;;;;;;;11.00;99.90;;;;;;6307983;22;19907;-86
2022/10/02 04:44:25;;;;;;;;;;;11.10;99.90;;;;;;6282118;22;19964;-86
2022/10/02 04:47:02;;;;;;;;;;;11.00;99.90;;;;;;6307992;22;20504;-87
2022/10/02 04:49:43;;;;;;;;;;;11.00;99.90;;;;;;6307824;22;19903;-85
2022/10/02 04:52:31;;;;;;;;;;;11.00;99.90;;;;;;6309490;22;20266;-86
2022/10/02 04:55:01;;;;;;;;;;;11.00;99.90;;;;;;6308170;22;19914;-86
2022/10/02 04:57:42;;;;;;;;;;;11.10;99.90;;;;;;6308128;22;19955;-86
2022/10/02 05:00:07;;;;;;;;;;;11.00;99.90;;;;;;6309246;22;19911;-86
2022/10/02 05:02:39;;;;;;;;;;;11.00;99.90;;;;;;6281869;22;20322;-86
2022/10/02 05:05:17;;;;;;;;;;;11.10;99.90;;;;;;6282211;22;19909;-86
2022/10/02 05:07:57;;;;;;;;;;;11.10;99.90;;;;;;6281676;22;19903;-86
2022/10/02 05:10:29;;;;;;;;;;;11.10;99.90;;;;;;6307907;22;20240;-87
2022/10/02 05:13:04;;;;;;;;;;;11.10;99.90;;;;;;6307986;22;19981;-86
2022/10/02 05:15:48;;;;;;;;;;;11.10;99.90;;;;;;6307500;22;19903;-86
2022/10/02 05:18:23;;;;;;;;;;;11.00;99.90;;;;;;6307978;22;19903;-85
2022/10/02 05:21:07;;;;;;;;;;;11.00;99.90;;;;;;6307746;22;20230;-86
2022/10/02 05:23:44;;;;;;;;;;;11.00;99.90;;;;;;6307846;22;19910;-87
2022/10/02 05:26:19;;;;;;;;;;;11.00;99.90;;;;;;6307781;22;20268;-88
2022/10/02 05:28:44;;;;;;;;;;;11.00;99.90;;;;;;6308304;22;19902;-87
2022/10/02 05:31:10;;;;;;;;;;;11.00;99.90;;;;;;6307907;22;19937;-89
2022/10/02 05:33:42;;;;;;;;;;;11.00;99.90;;;;;;6309135;22;19917;-89
2022/10/02 05:36:10;;;;;;;;;;;10.90;99.90;;;;;;6281404;22;19903;-89
2022/10/02 05:38:36;;;;;;;;;;;10.90;99.90;;;;;;6307542;22;19971;-87
2022/10/02 05:41:24;;;;;;;;;;;10.90;99.90;;;;;;6281718;22;19997;-89
2022/10/02 05:43:56;;;;;;;;;;;10.90;99.90;;;;;;6307723;22;20035;-87
2022/10/02 05:46:45;;;;;;;;;;;10.90;99.90;;;;;;6308500;22;19910;-88
2022/10/02 05:49:14;;;;;;;;;;;10.90;99.90;;;;;;6308072;22;19903;-88
2022/10/02 05:55:26;;;;;;;;;;;10.90;99.90;;;;;;6309454;22;19932;-87
2022/10/02 05:58:04;;;;;;;;;;;10.90;99.90;;;;;;6308091;22;19909;-88
2022/10/02 06:00:46;;;;;;;;;;;10.90;99.90;;;;;;6308908;22;19942;-88
2022/10/02 06:03:30;;;;;;;;;;;10.90;99.90;;;;;;6282494;22;19907;-88
2022/10/02 06:06:05;;;;;;;;;;;10.90;99.90;;;;;;6307616;22;19907;-88
2022/10/02 06:08:39;;;;;;;;;;;10.90;99.90;;;;;;6308277;22;19903;-88
2022/10/02 06:11:09;;;;;;;;;;;10.90;99.90;;;;;;6282199;22;19903;-88
2022/10/02 06:13:34;;;;;;;;;;;10.90;99.90;;;;;;6282386;22;19906;-87
2022/10/02 06:16:27;;;;;;;;;;;10.90;99.90;;;;;;6281952;22;19902;-87
2022/10/02 06:18:59;;;;;;;;;;;10.80;99.90;;;;;;6245864;22;19903;-88
2022/10/02 06:21:37;;;;;;;;;;;10.90;99.90;;;;;;6308172;22;20317;-88
2022/10/02 06:24:11;;;;;;;;;;;10.90;99.90;;;;;;6307473;22;19907;-87
2022/10/02 06:26:39;;;;;;;;;;;10.90;99.90;;;;;;6282689;22;20256;-88
2022/10/02 06:29:09;;;;;;;;;;;10.90;99.90;;;;;;6282454;22;19903;-88
2022/10/02 06:31:39;;;;;;;;;;;10.80;99.90;;;;;;6281939;22;19944;-88
2022/10/02 06:34:09;;;;;;;;;;;10.90;99.90;;;;;;6307963;22;19909;-89
2022/10/02 06:36:34;;;;;;;;;;;10.80;99.90;;;;;;6307473;22;19903;-89
2022/10/02 06:39:03;;;;;;;;;;;10.80;99.90;;;;;;6307697;22;19909;-89
2022/10/02 06:41:29;;;;;;;;;;;10.90;99.90;;;;;;6281325;22;20345;-88
2022/10/02 06:43:55;;;;;;;;;;;10.80;99.90;;;;;;6307332;22;19903;-89
2022/10/02 06:46:21;;;;;;;;;;;10.80;99.90;;;;;;6307642;22;20326;-89
2022/10/02 06:48:57;;;;;;;;;;;10.80;99.90;;;;;;6307623;22;19948;-89
2022/10/02 06:51:34;;;;;;;;;;;10.90;99.90;;;;;;6281607;22;19902;-89
2022/10/02 06:54:10;;;;;;;;;;;10.80;99.90;;;;;;6281585;22;19906;-88
2022/10/02 06:56:42;;;;;;;;;;;10.90;99.90;;;;;;6308239;22;19903;-87
2022/10/02 06:59:10;;;;;;;;;;;10.90;99.90;;;;;;6309178;22;20264;-89
2022/10/02 07:02:16;;;;;;;;;;;10.90;99.90;;;;;;6282026;22;19913;-88
2022/10/02 07:04:47;;;;;;;;;;;10.90;99.90;;;;;;6245109;23;20351;-89
2022/10/02 07:07:13;;;;;;;;;;;10.80;99.90;;;;;;6219169;23;19914;-88
2022/10/02 07:09:59;;;;;;;;;;;10.90;99.90;;;;;;6237023;22;19934;-88
2022/10/02 07:12:36;;;;;;;;;;;10.90;99.90;;;;;;6282063;22;20219;-87
2022/10/02 07:15:02;;;;;;;;;;;10.90;99.90;;;;;;6307354;22;19903;-88
2022/10/02 07:17:46;;;;;;;;;;;11.00;99.90;;;;;;6280935;22;20265;-87
2022/10/02 07:20:11;;;;;;;;;;;11.00;99.90;;;;;;6281373;22;19903;-88
2022/10/02 07:22:37;;;;;;;;;;;11.00;99.90;;;;;;6281084;22;19907;-87
2022/10/02 07:25:21;;;;;;;;;;;11.00;99.90;;;;;;6281478;22;20301;-89
2022/10/02 07:28:09;;;;;;;;;;;10.90;99.90;;;;;;6306512;22;19907;-88
2022/10/02 07:30:55;;;;;;;;;;;10.90;99.90;;;;;;6292161;22;19907;-89
2022/10/02 07:33:27;;;;;;;;;;;10.90;99.90;;;;;;6308889;22;19922;-89
2022/10/02 07:35:55;;;;;;;;;;;10.90;99.90;;;;;;6308876;22;20204;-88
2022/10/02 07:38:43;;;;;;;;;;;10.90;99.90;;;;;;6282772;22;19977;-87
2022/10/02 07:41:32;;;;;;;;;;;10.90;99.90;;;;;;6283330;22;19906;-88
2022/10/02 07:44:16;;;;;;;;;;;10.90;99.90;;;;;;6279732;22;19903;-89
2022/10/02 07:46:57;;;;;;;;;;;11.00;99.90;;;;;;6335998;22;20568;-88
2022/10/02 07:49:43;;;;;;;;;;;11.00;99.90;;;;;;6309319;22;19902;-90
2022/10/02 07:52:28;;;;;;;;;;;11.00;99.90;;;;;;6309578;22;19903;-88
2022/10/02 07:54:58;;;;;;;;;;;10.90;99.90;;;;;;6309303;22;19949;-89
2022/10/02 07:57:39;;;;;;;;;;;10.90;99.90;;;;;;6308827;22;19902;-88
2022/10/02 08:00:15;;;;;;;;;;;10.90;99.90;;;;;;6309170;22;19910;-88
2022/10/02 08:02:41;;;;;;;;;;;10.90;99.90;;;;;;6309905;22;19910;-87
2022/10/02 08:05:17;;;;;;;;;;;10.80;99.90;;;;;;6283918;22;19914;-88
2022/10/02 08:07:44;;;;;;;;;;;10.80;99.90;;;;;;6283595;22;20219;-88
2022/10/02 08:10:13;;;;;;;;;;;10.80;99.90;;;;;;6309515;22;19914;-87
2022/10/02 08:12:40;;;;;;;;;;;10.80;99.90;;;;;;6309257;22;19910;-88
2022/10/02 08:15:11;;;;;;;;;;;10.80;99.90;;;;;;6308836;22;19946;-87
2022/10/02 08:17:48;;;;;;;;;;;10.80;99.90;;;;;;6283830;22;19910;-87
2022/10/02 08:20:21;;;;;;;;;;;10.80;99.90;;;;;;6283674;22;20269;-88
2022/10/02 08:22:49;;;;;;;;;;;10.80;99.90;;;;;;6309094;22;19949;-88
2022/10/02 08:25:25;;;;;;;;;;;10.80;99.90;;;;;;6283435;22;19963;-85
2022/10/02 08:28:18;;;;;;;;;;;10.80;99.90;;;;;;6309463;22;19909;-87
2022/10/02 08:30:43;;;;;;;;;;;10.70;99.90;;;;;;6248991;22;19930;-88
2022/10/02 08:33:16;;;;;;;;;;;10.80;99.90;;;;;;6283755;22;19910;-87
2022/10/02 08:35:58;;;;;;;;;;;10.80;99.90;;;;;;6283880;22;20238;-88
2022/10/02 08:38:32;;;;;;;;;;;10.80;99.90;;;;;;6284744;22;19986;-88
2022/10/02 08:41:17;;;;;;;;;;;10.80;99.90;;;;;;6309647;22;19913;-88
2022/10/02 08:43:45;;;;;;;;;;;10.80;99.90;;;;;;6283055;22;20319;-88
2022/10/02 08:46:17;;;;;;;;;;;10.80;99.90;;;;;;6309599;22;19899;-87
2022/10/02 08:49:02;;;;;;;;;;;10.80;99.90;;;;;;6309580;22;19903;-87
2022/10/02 08:51:39;;;;;;;;;;;10.90;99.90;;;;;;6309765;22;19909;-87
2022/10/02 08:54:20;;;;;;;;;;;10.80;99.90;;;;;;6309571;22;19960;-87
2022/10/02 08:56:49;;;;;;;;;;;10.80;99.90;;;;;;6309792;22;19978;-88
2022/10/02 08:59:33;;;;;;;;;;;10.80;99.90;;;;;;6284110;22;19918;-89
2022/10/02 09:02:18;;;;;;;;;;;10.90;99.90;;;;;;6283422;22;20231;-88
2022/10/02 09:05:02;;;;;;;;;;;10.90;99.90;;;;;;6283988;22;19902;-88
2022/10/02 09:07:47;;;;;;;;;;;10.80;99.90;;;;;;6310245;22;19903;-89
2022/10/02 09:10:31;;;;;;;;;;;10.90;99.90;;;;;;6284567;22;20278;-89
2022/10/02 09:13:15;;;;;;;;;;;10.90;99.90;;;;;;6310432;22;19907;-89
2022/10/02 09:15:44;;;;;;;;;;;10.90;99.90;;;;;;6284377;22;19938;-89
2022/10/02 09:18:15;;;;;;;;;;;11.00;99.90;;;;;;6320733;22;19910;-88
2022/10/02 09:20:50;;;;;;;;;;;10.90;99.90;;;;;;6284197;22;19907;-89
2022/10/02 09:23:35;;;;;;;;;;;11.00;99.90;;;;;;6284312;22;19907;-88
2022/10/02 09:26:09;;;;;;;;;;;11.00;99.90;;;;;;6283829;22;19935;-88
2022/10/02 09:28:46;;;;;;;;;;;11.00;99.90;;;;;;6310147;22;19909;-88
2022/10/02 09:31:28;;;;;;;;;;;11.00;99.90;;;;;;6283717;22;19909;-88
2022/10/02 09:33:54;;;;;;;;;;;11.00;99.90;;;;;;6309253;22;19902;-88
2022/10/02 09:36:35;;;;;;;;;;;11.00;99.90;;;;;;6309651;22;20366;-87
2022/10/02 09:39:08;;;;;;;;;;;11.00;99.90;;;;;;6309263;22;19910;-88
2022/10/02 09:41:46;;;;;;;;;;;11.00;99.90;;;;;;6283944;22;19907;-87
2022/10/02 09:44:31;;;;;;;;;;;11.00;99.90;;;;;;6309597;22;19956;-88
2022/10/02 09:47:17;;;;;;;;;;;11.00;99.90;;;;;;6308936;22;19906;-88
2022/10/02 09:50:02;;;;;;;;;;;11.00;99.90;;;;;;6282906;22;19918;-89
2022/10/02 09:52:27;;;;;;;;;;;11.00;99.90;;;;;;6306825;22;19903;-88
2022/10/02 09:55:11;;;;;;;;;;;10.90;99.90;;;;;;6309074;22;19952;-88
2022/10/02 09:57:50;;;;;;;;;;;10.90;99.90;;;;;;6283617;22;19902;-88
2022/10/02 10:00:25;;;;;;;;;;;10.90;99.90;;;;;;6283115;22;19907;-88
2022/10/02 10:03:06;;;;;;;;;;;11.00;99.90;;;;;;6310755;22;19930;-87
2022/10/02 10:05:47;;;;;;;;;;;11.00;99.90;;;;;;6284634;22;19907;-89
2022/10/02 10:08:32;;;;;;;;;;;11.00;99.90;;;;;;6283801;22;19910;-89
2022/10/02 10:11:11;;;;;;;;;;;11.00;99.90;;;;;;6283222;22;20307;-88
2022/10/02 10:13:52;;;;;;;;;;;11.00;99.90;;;;;;6282867;22;19914;-88
2022/10/02 10:16:18;;;;;;;;;;;11.00;99.90;;;;;;6309120;22;19952;-89
2022/10/02 10:19:03;;;;;;;;;;;11.00;99.90;;;;;;6283007;22;19948;-88
2022/10/02 10:21:43;;;;;;;;;;;11.10;99.90;;;;;;6308782;22;20548;-88
2022/10/02 10:24:12;;;;;;;;;;;11.10;99.90;;;;;;6308950;22;19910;-88
2022/10/02 10:26:50;;;;;;;;;;;11.00;99.90;;;;;;6282872;22;19941;-88
2022/10/02 10:29:20;;;;;;;;;;;11.10;99.90;;;;;;6283306;22;19903;-89
2022/10/02 10:32:04;;;;;;;;;;;11.00;99.90;;;;;;6283983;22;19910;-88
2022/10/02 10:34:49;;;;;;;;;;;11.00;99.90;;;;;;6283338;22;19902;-88
2022/10/02 10:40:22;;;;;;;;;;;11.00;99.90;;;;;;6309328;22;19909;-86
2022/10/02 10:42:54;;;;;;;;;;;11.00;99.90;;;;;;6283194;22;20005;-86
2022/10/02 10:45:21;;;;;;;;;;;11.00;99.90;;;;;;6283303;22;19910;-86
2022/10/02 10:47:46;;;;;;;;;;;11.00;99.90;;;;;;6284049;22;19952;-87
2022/10/02 10:50:22;;;;;;;;;;;11.00;99.90;;;;;;6310437;22;19907;-87
2022/10/02 10:52:54;;;;;;;;;;;11.00;99.90;;;;;;6307096;22;19903;-87
2022/10/02 10:55:32;;;;;;;;;;;11.00;99.90;;;;;;6283437;22;19903;-87
2022/10/02 10:58:07;;;;;;;;;;;11.00;99.90;;;;;;6283939;22;20393;-88
2022/10/02 11:00:40;;;;;;;;;;;11.00;99.90;;;;;;6309557;22;19914;-88
2022/10/02 11:03:26;;;;;;;;;;;11.00;99.90;;;;;;6309299;22;19925;-87
2022/10/02 11:06:01;;;;;;;;;;;11.00;99.90;;;;;;6310272;22;19981;-87
2022/10/02 11:08:30;;;;;;;;;;;11.10;99.90;;;;;;6311428;22;19914;-87
2022/10/02 11:11:14;;;;;;;;;;;11.20;99.90;;;;;;6285582;22;19977;-88
2022/10/02 11:13:42;;;;;;;;;;;11.20;99.90;;;;;;6312108;22;19968;-88
2022/10/02 11:16:17;;;;;;;;;;;11.20;99.90;;;;;;6311728;22;19902;-89
2022/10/02 11:19:01;;;;;;;;;;;11.20;99.90;;;;;;6288662;22;19911;-88
2022/10/02 11:21:40;;;;;;;;;;;11.20;99.90;;;;;;6312080;22;19917;-88
2022/10/02 11:24:09;;;;;;;;;;;11.20;99.90;;;;;;6286280;22;20511;-88
2022/10/02 11:26:46;;;;;;;;;;;11.20;99.90;;;;;;6311369;22;19903;-88
2022/10/02 11:29:15;;;;;;;;;;;11.30;99.90;;;;;;6285508;22;19903;-88
2022/10/02 11:32:08;;;;;;;;;;;11.30;99.90;;;;;;6311416;22;19907;-88
2022/10/02 11:34:39;;;;;;;;;;;11.30;99.90;;;;;;6311818;22;19906;-87
2022/10/02 11:37:23;;;;;;;;;;;11.20;99.90;;;;;;6311447;22;19902;-88
2022/10/02 11:40:01;;;;;;;;;;;11.10;99.90;;;;;;6312854;22;19903;-88
2022/10/02 11:42:47;;;;;;;;;;;11.20;99.90;;;;;;6311926;22;19915;-89
2022/10/02 11:45:31;;;;;;;;;;;11.20;99.90;;;;;;6312498;22;20262;-90
2022/10/02 11:48:11;;;;;;;;;;;11.30;99.90;;;;;;6286263;22;19934;-89
2022/10/02 11:50:42;;;;;;;;;;;11.30;99.90;;;;;;6311778;22;19907;-89
2022/10/02 11:53:34;;;;;;;;;;;11.20;99.90;;;;;;6285154;22;20314;-90
2022/10/02 11:56:21;;;;;;;;;;;11.10;99.90;;;;;;6304433;22;20318;-88
2022/10/02 11:58:46;;;;;;;;;;;11.10;99.90;;;;;;6312284;22;20279;-88
2022/10/02 12:01:36;;;;;;;;;;;11.10;99.90;;;;;;6311456;22;19903;-88
2022/10/02 12:04:05;;;;;;;;;;;11.10;99.90;;;;;;6313112;22;19949;-87
2022/10/02 12:06:37;;;;;;;;;;;11.00;99.90;;;;;;6311780;22;19903;-87
2022/10/02 12:09:21;;;;;;;;;;;11.10;99.90;;;;;;6286698;22;19907;-89
2022/10/02 12:12:05;;;;;;;;;;;11.10;99.90;;;;;;6313263;22;19907;-88
2022/10/02 12:14:49;;;;;;;;;;;11.20;99.90;;;;;;6311285;22;19887;-88
2022/10/02 12:17:15;;;;;;;;;;;11.20;99.90;;;;;;6311228;22;19909;-89
2022/10/02 12:28:54;;;;;;;;;;;11.20;99.90;;;;;;6312862;22;19913;-90
2022/10/02 12:31:49;;;;;;;;;;;11.20;99.90;;;;;;6312152;22;20261;-89
2022/10/02 12:34:39;;;;;;;;;;;11.10;99.90;;;;;;6312654;22;19973;-88
2022/10/02 12:37:07;;;;;;;;;;;11.10;99.90;;;;;;6285545;22;19902;-90
2022/10/02 12:39:47;;;;;;;;;;;11.10;99.90;;;;;;6286111;22;19982;-89
2022/10/02 12:42:20;;;;;;;;;;;11.20;99.90;;;;;;6285707;22;19956;-89
2022/10/02 12:44:52;;;;;;;;;;;11.20;99.90;;;;;;6312888;22;19952;-89
2022/10/02 12:47:21;;;;;;;;;;;11.20;99.90;;;;;;6312857;22;19909;-89
2022/10/02 12:50:06;;;;;;;;;;;11.20;99.90;;;;;;6285940;22;19933;-89
2022/10/02 12:52:45;;;;;;;;;;;11.20;99.90;;;;;;6310671;22;20307;-90
2022/10/02 12:55:14;;;;;;;;;;;11.30;99.90;;;;;;6283694;22;20338;-89
2022/10/02 12:57:59;;;;;;;;;;;11.30;99.90;;;;;;6285954;22;19910;-89
2022/10/02 13:00:31;;;;;;;;;;;11.30;99.90;;;;;;6304927;22;20342;-90
2022/10/02 13:03:04;;;;;;;;;;;11.30;99.90;;;;;;6283173;22;19911;-89
2022/10/02 13:05:36;;;;;;;;;;;11.30;99.90;;;;;;6283464;22;19902;-89
2022/10/02 13:08:14;;;;;;;;;;;11.30;99.90;;;;;;6283695;22;19907;-89
2022/10/02 13:10:44;;;;;;;;;;;11.30;99.90;;;;;;6309106;22;19913;-89
2022/10/02 13:13:11;;;;;;;;;;;11.20;99.90;;;;;;6308981;22;19899;-90
2022/10/02 13:15:46;;;;;;;;;;;11.20;99.90;;;;;;6283805;22;19971;-89
2022/10/02 13:18:26;;;;;;;;;;;11.20;99.90;;;;;;6310185;22;19902;-89
2022/10/02 13:21:00;;;;;;;;;;;11.20;99.90;;;;;;6284577;22;19907;-90
2022/10/02 13:23:34;;;;;;;;;;;11.20;99.90;;;;;;6284494;22;19986;-90
2022/10/02 13:26:12;;;;;;;;;;;11.30;99.90;;;;;;6310145;22;19902;-90
2022/10/02 13:28:57;;;;;;;;;;;11.30;99.90;;;;;;6284202;22;19938;-89
2022/10/02 13:35:23;;;;;;;;;;;11.30;99.90;;;;;;6248784;23;19944;-89
2022/10/02 13:38:07;;;;;;;;;;;11.40;99.90;;;;;;6198338;23;19910;-90
2022/10/02 13:40:52;;;;;;;;;;;11.30;99.90;;;;;;6309171;22;19977;-89
2022/10/02 13:43:20;;;;;;;;;;;11.30;99.90;;;;;;6284100;22;19934;-88
2022/10/02 13:45:48;;;;;;;;;;;11.20;99.90;;;;;;6284204;22;19903;-89
2022/10/02 13:48:30;;;;;;;;;;;11.20;99.90;;;;;;6284220;22;19903;-89
2022/10/02 13:51:02;;;;;;;;;;;11.10;99.90;;;;;;6309946;22;19974;-89
2022/10/02 13:53:37;;;;;;;;;;;11.10;99.90;;;;;;6282604;22;19903;-89
2022/10/02 13:56:19;;;;;;;;;;;11.10;99.90;;;;;;6283885;22;19913;-88
2022/10/02 13:58:45;;;;;;;;;;;11.10;99.90;;;;;;6283658;22;19911;-89
2022/10/02 14:01:14;;;;;;;;;;;11.10;99.90;;;;;;6284623;22;19963;-89
2022/10/02 14:03:39;;;;;;;;;;;11.10;99.90;;;;;;6284408;22;19903;-89
2022/10/02 14:06:11;;;;;;;;;;;11.10;99.90;;;;;;6309882;22;19903;-89
2022/10/02 14:08:40;;;;;;;;;;;11.10;99.90;;;;;;6308819;22;19902;-89
2022/10/02 14:11:06;;;;;;;;;;;11.10;99.90;;;;;;6310353;22;19926;-89
2022/10/02 14:13:37;;;;;;;;;;;11.10;99.90;;;;;;6310914;22;19954;-89
2022/10/02 14:16:31;;;;;;;;;;;11.10;99.90;;;;;;6311532;22;19907;-89
2022/10/02 14:19:26;;;;;;;;;;;11.10;99.90;;;;;;6296829;22;19945;-90
2022/10/02 14:21:55;;;;;;;;;;;11.20;99.90;;;;;;6195487;23;19907;-90
2022/10/02 14:27:41;;;;;;;;;;;11.10;99.90;;;;;;6311448;22;20307;-90
2022/10/02 14:30:18;;;;;;;;;;;11.10;99.90;;;;;;6283684;22;19910;-90
2022/10/02 14:33:03;;;;;;;;;;;11.10;99.90;;;;;;6284731;22;19981;-90
2022/10/02 14:35:32;;;;;;;;;;;11.10;99.90;;;;;;6283611;22;19935;-89
2022/10/02 14:38:22;;;;;;;;;;;11.10;99.90;;;;;;6309837;22;19910;-88
2022/10/02 14:40:56;;;;;;;;;;;11.10;99.90;;;;;;6309087;22;19972;-88
2022/10/02 14:43:42;;;;;;;;;;;11.20;99.90;;;;;;6308152;22;19909;-89
2022/10/02 14:46:27;;;;;;;;;;;11.10;99.90;;;;;;6308902;22;19902;-89
2022/10/02 14:48:59;;;;;;;;;;;11.10;99.90;;;;;;6308994;22;19974;-88
2022/10/02 14:51:44;;;;;;;;;;;11.10;99.90;;;;;;6309016;22;19903;-89
2022/10/02 14:54:17;;;;;;;;;;;11.00;99.90;;;;;;6283255;22;19938;-89
2022/10/02 14:56:52;;;;;;;;;;;11.00;99.90;;;;;;6283874;22;20255;-89
2022/10/02 14:59:30;;;;;;;;;;;11.00;99.90;;;;;;6309102;22;19890;-89
2022/10/02 15:02:01;;;;;;;;;;;11.00;99.90;;;;;;6285996;22;19934;-89
2022/10/02 15:04:47;;;;;;;;;;;11.00;99.90;;;;;;6310263;22;19903;-90
2022/10/02 15:07:14;;;;;;;;;;;11.00;99.90;;;;;;6283221;22;19895;-88
2022/10/02 15:09:45;;;;;;;;;;;11.00;99.90;;;;;;6308893;22;19899;-88
2022/10/02 15:12:17;;;;;;;;;;;11.00;99.90;;;;;;6283500;22;19906;-88
2022/10/02 15:14:52;;;;;;;;;;;11.00;99.90;;;;;;6309412;22;19903;-90
2022/10/02 15:17:55;;;;;;;;;;;11.00;99.90;;;;;;6310610;22;19903;-89
2022/10/02 15:20:40;;;;;;;;;;;11.00;99.90;;;;;;6274582;22;19910;-89
2022/10/02 15:23:10;;;;;;;;;;;10.90;99.90;;;;;;6283967;22;19907;-88
2022/10/02 15:25:56;;;;;;;;;;;10.90;99.90;;;;;;6283682;22;20337;-89
2022/10/02 15:28:21;;;;;;;;;;;10.90;99.90;;;;;;6283434;22;19914;-89
2022/10/02 15:31:10;;;;;;;;;;;10.90;99.90;;;;;;6308934;22;19903;-89
2022/10/02 15:33:41;;;;;;;;;;;10.90;99.90;;;;;;6239477;22;19907;-88